createdAt,value
2022-08-19T00:01:10.530Z,0
2022-08-19T00:02:26.797Z,0
2022-08-19T00:03:42.124Z,0
2022-08-19T00:04:58.405Z,0
2022-08-19T00:06:14.713Z,0
2022-08-19T00:07:30.978Z,0
2022-08-19T00:08:47.299Z,0
2022-08-19T00:10:03.568Z,0
2022-08-19T00:11:19.887Z,0
2022-08-19T00:12:36.178Z,0
2022-08-19T00:13:52.457Z,0
2022-08-19T00:15:08.747Z,0
2022-08-19T00:16:25.031Z,0
2022-08-19T00:17:41.327Z,0
2022-08-19T00:18:57.615Z,0
2022-08-19T00:20:12.958Z,0
2022-08-19T00:21:29.235Z,0
2022-08-19T00:22:45.548Z,0
2022-08-19T00:24:01.807Z,0
2022-08-19T00:25:18.115Z,0
2022-08-19T00:26:34.411Z,0
2022-08-19T00:27:50.701Z,0
2022-08-19T00:29:06.980Z,0
2022-08-19T00:30:23.284Z,0
2022-08-19T00:31:39.587Z,0
2022-08-19T00:32:55.865Z,0
2022-08-19T00:34:12.173Z,0
2022-08-19T00:35:28.481Z,0
2022-08-19T00:36:43.794Z,0
2022-08-19T00:38:00.057Z,0
2022-08-19T00:39:16.391Z,0
2022-08-19T00:40:32.650Z,0
2022-08-19T00:41:48.937Z,0
2022-08-19T00:43:05.231Z,0
2022-08-19T00:44:21.525Z,0
2022-08-19T00:45:37.851Z,0
2022-08-19T00:46:54.106Z,0
2022-08-19T00:48:10.404Z,0
2022-08-19T00:49:26.733Z,0
2022-08-19T00:50:42.996Z,0
2022-08-19T00:51:59.293Z,0
2022-08-19T00:53:14.591Z,0
2022-08-19T00:54:30.896Z,0
2022-08-19T00:55:47.181Z,0
2022-08-19T00:57:03.514Z,0
2022-08-19T00:58:19.774Z,0
2022-08-19T00:59:36.092Z,0
2022-08-19T01:00:52.355Z,0
2022-08-19T01:02:08.657Z,0
2022-08-19T01:03:24.947Z,0
2022-08-19T01:04:41.241Z,0
2022-08-19T01:05:57.536Z,0
2022-08-19T01:07:13.842Z,0
2022-08-19T01:08:30.118Z,0
2022-08-19T01:09:45.442Z,0
2022-08-19T01:11:01.725Z,0
2022-08-19T01:12:18.014Z,0
2022-08-19T01:13:34.345Z,0
2022-08-19T01:14:50.618Z,0
2022-08-19T01:16:06.927Z,0
2022-08-19T01:17:23.190Z,0
2022-08-19T01:18:39.502Z,0
2022-08-19T01:19:55.826Z,0
2022-08-19T01:21:12.104Z,0
2022-08-19T01:22:28.405Z,0
2022-08-19T01:23:44.673Z,0
2022-08-19T01:25:01.004Z,0
2022-08-19T01:26:16.278Z,0
2022-08-19T01:27:32.568Z,0
2022-08-19T01:28:48.887Z,0
2022-08-19T01:30:05.183Z,0
2022-08-19T01:31:21.476Z,0
2022-08-19T01:32:37.752Z,0
2022-08-19T01:33:54.036Z,0
2022-08-19T01:35:10.357Z,0
2022-08-19T01:36:26.649Z,0
2022-08-19T01:37:42.945Z,0
2022-08-19T01:38:59.221Z,0
2022-08-19T01:40:15.511Z,0
2022-08-19T01:41:31.830Z,0
2022-08-19T01:42:47.117Z,0
2022-08-19T01:44:03.442Z,0
2022-08-19T01:45:19.701Z,0
2022-08-19T01:46:35.991Z,0
2022-08-19T01:47:52.288Z,0
2022-08-19T01:50:24.882Z,0
2022-08-19T01:51:41.175Z,0
2022-08-19T01:52:57.493Z,0
2022-08-19T01:54:13.769Z,0
2022-08-19T01:55:30.092Z,0
2022-08-19T01:56:46.375Z,0
2022-08-19T01:58:02.642Z,0
2022-08-19T01:59:17.981Z,0
2022-08-19T02:00:34.274Z,0
2022-08-19T02:01:50.546Z,0
2022-08-19T02:03:06.834Z,0
2022-08-19T02:04:23.168Z,0
2022-08-19T02:05:39.450Z,0
2022-08-19T02:06:55.713Z,0
2022-08-19T02:08:12.020Z,0
2022-08-19T02:09:28.307Z,0
2022-08-19T02:10:44.606Z,0
2022-08-19T02:12:00.894Z,0
2022-08-19T02:13:17.197Z,0
2022-08-19T02:14:33.481Z,0
2022-08-19T02:15:48.802Z,0
2022-08-19T02:17:05.085Z,0
2022-08-19T02:18:21.388Z,0
2022-08-19T02:19:37.678Z,0
2022-08-19T02:20:53.983Z,0
2022-08-19T02:22:10.277Z,0
2022-08-19T02:24:42.860Z,0
2022-08-19T02:25:59.149Z,0
2022-08-19T02:27:15.451Z,0
2022-08-19T02:28:31.734Z,0
2022-08-19T02:29:48.061Z,0
2022-08-19T02:31:04.323Z,0
2022-08-19T02:32:19.662Z,0
2022-08-19T02:33:35.924Z,0
2022-08-19T02:34:52.232Z,0
2022-08-19T02:36:08.522Z,0
2022-08-19T02:37:24.846Z,0
2022-08-19T02:38:41.114Z,0
2022-08-19T02:39:57.398Z,0
2022-08-19T02:41:13.696Z,0
2022-08-19T02:42:29.999Z,0
2022-08-19T02:43:46.293Z,0
2022-08-19T02:45:02.587Z,0
2022-08-19T02:46:18.874Z,0
2022-08-19T02:47:35.200Z,0
2022-08-19T02:48:50.521Z,0
2022-08-19T02:50:06.770Z,0
2022-08-19T02:51:23.068Z,0
2022-08-19T02:52:39.393Z,0
2022-08-19T02:53:55.682Z,0
2022-08-19T02:55:11.982Z,0
2022-08-19T02:56:28.257Z,0
2022-08-19T02:57:44.534Z,0
2022-08-19T02:59:00.828Z,0
2022-08-19T03:00:17.137Z,0
2022-08-19T03:01:33.427Z,0
2022-08-19T03:02:49.718Z,0
2022-08-19T03:04:06.015Z,0
2022-08-19T03:05:21.365Z,0
2022-08-19T03:06:37.613Z,0
2022-08-19T03:07:53.914Z,0
2022-08-19T03:09:10.209Z,0
2022-08-19T03:10:26.499Z,0
2022-08-19T03:11:42.800Z,0
2022-08-19T03:12:59.096Z,0
2022-08-19T03:14:15.376Z,0
2022-08-19T03:15:31.674Z,0
2022-08-19T03:16:48.004Z,0
2022-08-19T03:18:04.268Z,0
2022-08-19T03:19:20.555Z,0
2022-08-19T03:20:36.850Z,0
2022-08-19T03:21:52.202Z,0
2022-08-19T03:23:08.479Z,0
2022-08-19T03:24:24.742Z,0
2022-08-19T03:25:41.051Z,0
2022-08-19T03:26:57.340Z,0
2022-08-19T03:28:13.625Z,0
2022-08-19T03:29:29.958Z,0
2022-08-19T03:30:46.254Z,0
2022-08-19T03:32:02.514Z,0
2022-08-19T03:33:18.797Z,0
2022-08-19T03:34:35.121Z,0
2022-08-19T03:35:51.388Z,0
2022-08-19T03:37:07.633Z,1
2022-08-19T03:38:22.944Z,0
2022-08-19T03:39:39.227Z,0
2022-08-19T03:40:55.529Z,0
2022-08-19T03:42:11.815Z,0
2022-08-19T03:43:28.126Z,0
2022-08-19T03:44:44.367Z,1
2022-08-19T03:45:59.662Z,1
2022-08-19T03:47:15.934Z,0
2022-08-19T03:48:32.187Z,1
2022-08-19T03:49:48.440Z,1
2022-08-19T03:51:04.697Z,1
2022-08-19T03:52:20.934Z,2
2022-08-19T03:53:37.235Z,2
2022-08-19T03:54:53.458Z,1
2022-08-19T03:56:09.766Z,0
2022-08-19T03:57:25.989Z,2
2022-08-19T03:58:42.222Z,1
2022-08-19T03:59:58.452Z,4
2022-08-19T04:01:14.707Z,3
2022-08-19T04:02:29.955Z,2
2022-08-19T04:03:46.187Z,5
2022-08-19T04:05:02.436Z,3
2022-08-19T04:06:18.675Z,6
2022-08-19T04:07:34.941Z,6
2022-08-19T04:08:51.160Z,6
2022-08-19T04:10:07.387Z,5
2022-08-19T04:11:23.665Z,5
2022-08-19T04:12:39.869Z,9
2022-08-19T04:13:56.115Z,14
2022-08-19T04:15:12.354Z,9
2022-08-19T04:16:28.593Z,7
2022-08-19T04:17:44.839Z,7
2022-08-19T04:19:00.087Z,9
2022-08-19T04:20:16.325Z,12
2022-08-19T04:21:32.595Z,15
2022-08-19T04:22:48.810Z,17
2022-08-19T04:24:05.046Z,19
2022-08-19T04:25:21.281Z,27
2022-08-19T04:26:37.529Z,20
2022-08-19T04:27:53.798Z,21
2022-08-19T04:29:10.000Z,23
2022-08-19T04:30:26.277Z,31
2022-08-19T04:31:42.483Z,30
2022-08-19T04:32:58.726Z,32
2022-08-19T04:34:14.993Z,39
2022-08-19T04:35:30.220Z,48
2022-08-19T04:36:46.466Z,52
2022-08-19T04:38:02.743Z,66
2022-08-19T04:39:18.939Z,64
2022-08-19T04:40:35.191Z,63
2022-08-19T04:41:51.428Z,68
2022-08-19T04:43:07.686Z,73
2022-08-19T04:44:23.897Z,81
2022-08-19T04:45:40.182Z,88
2022-08-19T04:46:56.423Z,83
2022-08-19T04:48:12.622Z,76
2022-08-19T04:49:28.897Z,92
2022-08-19T04:50:45.126Z,91
2022-08-19T04:52:00.394Z,108
2022-08-19T04:53:16.599Z,121
2022-08-19T04:54:32.829Z,129
2022-08-19T04:55:49.103Z,137
2022-08-19T04:57:05.321Z,143
2022-08-19T04:58:21.590Z,145
2022-08-19T04:59:37.786Z,150
2022-08-19T05:00:54.045Z,142
2022-08-19T05:02:10.313Z,145
2022-08-19T05:03:26.545Z,142
2022-08-19T05:04:42.795Z,156
2022-08-19T05:05:58.998Z,164
2022-08-19T05:07:15.260Z,165
2022-08-19T05:08:30.492Z,158
2022-08-19T05:09:46.755Z,186
2022-08-19T05:11:02.976Z,187
2022-08-19T05:12:19.201Z,150
2022-08-19T05:13:35.444Z,141
2022-08-19T05:14:51.684Z,127
2022-08-19T05:16:07.969Z,139
2022-08-19T05:17:24.170Z,163
2022-08-19T05:18:40.438Z,186
2022-08-19T05:19:56.650Z,199
2022-08-19T05:21:12.889Z,212
2022-08-19T05:22:29.154Z,225
2022-08-19T05:23:45.408Z,222
2022-08-19T05:25:00.625Z,241
2022-08-19T05:26:16.864Z,246
2022-08-19T05:27:33.096Z,243
2022-08-19T05:28:49.346Z,259
2022-08-19T05:30:05.587Z,293
2022-08-19T05:31:21.818Z,246
2022-08-19T05:32:38.096Z,199
2022-08-19T05:33:54.335Z,146
2022-08-19T05:35:10.536Z,236
2022-08-19T05:36:26.809Z,288
2022-08-19T05:37:43.024Z,350
2022-08-19T05:38:59.248Z,230
2022-08-19T05:40:15.493Z,148
2022-08-19T05:41:30.764Z,197
2022-08-19T05:42:47.022Z,194
2022-08-19T05:44:03.232Z,180
2022-08-19T05:45:19.482Z,178
2022-08-19T05:46:35.706Z,161
2022-08-19T05:47:51.944Z,169
2022-08-19T05:49:08.184Z,259
2022-08-19T05:51:40.681Z,209
2022-08-19T05:52:56.950Z,136
2022-08-19T05:54:13.146Z,174
2022-08-19T05:55:29.387Z,86
2022-08-19T05:56:45.629Z,136
2022-08-19T05:58:00.883Z,144
2022-08-19T05:59:17.123Z,164
2022-08-19T06:00:33.357Z,125
2022-08-19T06:01:49.600Z,138
2022-08-19T06:03:05.841Z,163
2022-08-19T06:04:22.095Z,233
2022-08-19T06:05:38.368Z,236
2022-08-19T06:06:54.571Z,220
2022-08-19T06:08:10.799Z,312
2022-08-19T06:09:27.051Z,257
2022-08-19T06:10:43.279Z,240
2022-08-19T06:11:59.529Z,331
2022-08-19T06:13:15.763Z,254
2022-08-19T06:14:31.021Z,250
2022-08-19T06:15:47.259Z,246
2022-08-19T06:17:03.492Z,275
2022-08-19T06:18:19.767Z,180
2022-08-19T06:19:35.974Z,168
2022-08-19T06:20:52.255Z,194
2022-08-19T06:22:08.446Z,184
2022-08-19T06:23:24.702Z,202
2022-08-19T06:24:40.967Z,164
2022-08-19T06:25:57.211Z,198
2022-08-19T06:27:13.414Z,164
2022-08-19T06:28:29.663Z,202
2022-08-19T06:29:45.889Z,198
2022-08-19T06:31:01.183Z,176
2022-08-19T06:32:17.391Z,183
2022-08-19T06:33:33.630Z,270
2022-08-19T06:34:49.896Z,254
2022-08-19T06:36:06.104Z,260
2022-08-19T06:37:22.345Z,269
2022-08-19T06:38:38.586Z,245
2022-08-19T06:39:54.821Z,243
2022-08-19T06:41:11.067Z,211
2022-08-19T06:42:27.303Z,201
2022-08-19T06:43:43.584Z,162
2022-08-19T06:44:59.781Z,150
2022-08-19T06:46:16.027Z,120
2022-08-19T06:47:31.288Z,127
2022-08-19T06:48:47.551Z,127
2022-08-19T06:50:03.756Z,120
2022-08-19T06:51:20.001Z,119
2022-08-19T06:52:36.248Z,108
2022-08-19T06:53:52.512Z,86
2022-08-19T06:55:08.723Z,93
2022-08-19T06:56:24.996Z,95
2022-08-19T06:57:41.213Z,91
2022-08-19T06:58:57.445Z,83
2022-08-19T07:01:29.917Z,87
2022-08-19T07:02:46.157Z,79
2022-08-19T07:04:01.451Z,78
2022-08-19T07:05:17.653Z,79
2022-08-19T07:06:33.928Z,82
2022-08-19T07:07:50.143Z,61
2022-08-19T07:09:06.421Z,58
2022-08-19T07:10:22.612Z,70
2022-08-19T07:11:38.847Z,113
2022-08-19T07:12:55.106Z,79
2022-08-19T07:14:11.368Z,58
2022-08-19T07:15:27.619Z,98
2022-08-19T07:16:43.809Z,79
2022-08-19T07:18:00.086Z,54
2022-08-19T07:19:16.294Z,102
2022-08-19T07:20:31.548Z,63
2022-08-19T07:21:47.787Z,81
2022-08-19T07:23:04.029Z,99
2022-08-19T07:24:20.266Z,77
2022-08-19T07:25:36.506Z,85
2022-08-19T07:26:52.758Z,70
2022-08-19T07:28:09.025Z,77
2022-08-19T07:29:25.226Z,100
2022-08-19T07:30:41.467Z,129
2022-08-19T07:31:57.719Z,127
2022-08-19T07:33:13.950Z,131
2022-08-19T07:34:30.222Z,105
2022-08-19T07:35:46.432Z,67
2022-08-19T07:37:01.684Z,73
2022-08-19T07:38:17.924Z,60
2022-08-19T07:39:34.193Z,110
2022-08-19T07:40:50.398Z,103
2022-08-19T07:42:06.651Z,129
2022-08-19T07:43:22.876Z,152
2022-08-19T07:44:39.131Z,161
2022-08-19T07:45:55.400Z,209
2022-08-19T07:47:11.607Z,180
2022-08-19T07:48:27.870Z,160
2022-08-19T07:49:44.076Z,145
2022-08-19T07:51:00.313Z,145
2022-08-19T07:52:16.570Z,156
2022-08-19T07:53:31.809Z,211
2022-08-19T07:54:48.066Z,245
2022-08-19T07:56:04.290Z,228
2022-08-19T07:57:20.575Z,247
2022-08-19T07:58:36.781Z,180
2022-08-19T07:59:53.010Z,202
2022-08-19T08:01:08.278Z,236
2022-08-19T08:02:24.514Z,253
2022-08-19T08:03:40.762Z,216
2022-08-19T08:04:56.991Z,300
2022-08-19T08:06:13.234Z,306
2022-08-19T08:07:29.479Z,154
2022-08-19T08:08:45.720Z,408
2022-08-19T08:10:01.966Z,544
2022-08-19T08:11:18.210Z,478
2022-08-19T08:12:34.480Z,478
2022-08-19T08:13:50.671Z,441
2022-08-19T08:15:06.920Z,491
2022-08-19T08:16:23.153Z,465
2022-08-19T08:17:38.450Z,462
2022-08-19T08:18:54.668Z,503
2022-08-19T08:20:10.905Z,469
2022-08-19T08:21:27.148Z,416
2022-08-19T08:22:43.375Z,353
2022-08-19T08:23:59.628Z,319
2022-08-19T08:25:15.850Z,296
2022-08-19T08:26:32.104Z,281
2022-08-19T08:27:48.367Z,328
2022-08-19T08:29:04.579Z,422
2022-08-19T08:30:20.828Z,354
2022-08-19T08:31:37.067Z,335
2022-08-19T08:32:53.304Z,306
2022-08-19T08:34:08.555Z,318
2022-08-19T08:35:24.792Z,330
2022-08-19T08:36:41.035Z,360
2022-08-19T08:37:57.279Z,398
2022-08-19T08:39:13.520Z,421
2022-08-19T08:40:29.750Z,467
2022-08-19T08:41:45.996Z,405
2022-08-19T08:43:02.226Z,444
2022-08-19T08:44:18.484Z,401
2022-08-19T08:45:34.712Z,515
2022-08-19T08:46:50.946Z,462
2022-08-19T08:48:07.204Z,521
2022-08-19T08:49:23.443Z,431
2022-08-19T08:50:38.723Z,385
2022-08-19T08:51:54.976Z,280
2022-08-19T08:53:11.205Z,259
2022-08-19T08:54:27.409Z,299
2022-08-19T08:55:43.647Z,352
2022-08-19T08:56:59.932Z,370
2022-08-19T08:58:16.159Z,351
2022-08-19T08:59:32.398Z,356
2022-08-19T09:00:48.605Z,402
2022-08-19T09:02:04.844Z,350
2022-08-19T09:03:21.116Z,385
2022-08-19T09:04:37.364Z,245
2022-08-19T09:05:53.605Z,202
2022-08-19T09:07:08.834Z,275
2022-08-19T09:08:25.056Z,313
2022-08-19T09:09:41.339Z,335
2022-08-19T09:10:57.544Z,609
2022-08-19T09:12:13.779Z,568
2022-08-19T09:13:30.068Z,366
2022-08-19T09:14:46.257Z,432
2022-08-19T09:16:02.493Z,399
2022-08-19T09:17:18.748Z,292
2022-08-19T09:18:35.017Z,286
2022-08-19T09:19:51.251Z,378
2022-08-19T09:21:07.471Z,409
2022-08-19T09:22:23.693Z,525
2022-08-19T09:23:38.949Z,563
2022-08-19T09:24:55.184Z,541
2022-08-19T09:26:11.427Z,521
2022-08-19T09:27:27.681Z,428
2022-08-19T09:28:43.907Z,417
2022-08-19T09:30:00.156Z,320
2022-08-19T09:31:16.431Z,350
2022-08-19T09:32:32.639Z,369
2022-08-19T09:33:48.875Z,316
2022-08-19T09:35:05.123Z,403
2022-08-19T09:36:21.358Z,321
2022-08-19T09:37:37.590Z,205
2022-08-19T09:38:53.830Z,275
2022-08-19T09:40:09.093Z,546
2022-08-19T09:41:25.330Z,478
2022-08-19T09:42:41.570Z,326
2022-08-19T09:43:57.848Z,306
2022-08-19T09:45:14.042Z,373
2022-08-19T09:46:30.324Z,320
2022-08-19T09:47:46.521Z,314
2022-08-19T09:49:02.773Z,310
2022-08-19T09:50:19.003Z,328
2022-08-19T09:51:35.298Z,327
2022-08-19T09:52:51.483Z,299
2022-08-19T09:54:07.732Z,350
2022-08-19T09:55:23.963Z,564
2022-08-19T09:56:39.232Z,603
2022-08-19T09:57:55.502Z,550
2022-08-19T09:59:11.748Z,751
2022-08-19T10:00:27.978Z,391
2022-08-19T10:01:44.197Z,424
2022-08-19T10:03:00.428Z,778
2022-08-19T10:04:16.671Z,1216
2022-08-19T10:05:32.940Z,1234
2022-08-19T10:06:49.151Z,1882
2022-08-19T10:08:05.428Z,1302
2022-08-19T10:09:21.637Z,1519
2022-08-19T10:10:37.859Z,1355
2022-08-19T10:11:54.097Z,1335
2022-08-19T10:13:09.357Z,1146
2022-08-19T10:14:25.599Z,896
2022-08-19T10:15:41.839Z,824
2022-08-19T10:16:58.075Z,1150
2022-08-19T10:18:14.328Z,1158
2022-08-19T10:19:30.570Z,2032
2022-08-19T10:20:46.804Z,1386
2022-08-19T10:22:03.069Z,1036
2022-08-19T10:23:19.315Z,933
2022-08-19T10:24:35.519Z,773
2022-08-19T10:25:51.767Z,951
2022-08-19T10:27:08.002Z,853
2022-08-19T10:28:24.236Z,561
2022-08-19T10:29:39.536Z,443
2022-08-19T10:30:55.739Z,432
2022-08-19T10:32:11.960Z,546
2022-08-19T10:33:28.199Z,551
2022-08-19T10:34:44.441Z,626
2022-08-19T10:36:00.721Z,639
2022-08-19T10:37:16.921Z,666
2022-08-19T10:38:33.209Z,660
2022-08-19T10:39:49.397Z,584
2022-08-19T10:41:05.676Z,515
2022-08-19T10:42:21.887Z,829
2022-08-19T10:43:38.128Z,1002
2022-08-19T10:44:54.363Z,585
2022-08-19T10:46:09.622Z,817
2022-08-19T10:47:25.888Z,524
2022-08-19T10:48:42.096Z,652
2022-08-19T10:49:58.333Z,823
2022-08-19T10:51:14.581Z,684
2022-08-19T10:52:30.809Z,889
2022-08-19T10:53:47.058Z,741
2022-08-19T10:55:03.295Z,856
2022-08-19T10:56:19.567Z,1069
2022-08-19T10:57:35.776Z,947
2022-08-19T10:58:52.056Z,776
2022-08-19T11:00:08.281Z,535
2022-08-19T11:01:24.489Z,651
2022-08-19T11:02:39.749Z,730
2022-08-19T11:03:55.989Z,578
2022-08-19T11:05:12.266Z,1004
2022-08-19T11:06:28.454Z,1450
2022-08-19T11:07:44.740Z,1364
2022-08-19T11:09:00.934Z,1138
2022-08-19T11:10:17.177Z,800
2022-08-19T11:11:33.417Z,663
2022-08-19T11:12:49.659Z,642
2022-08-19T11:14:05.899Z,673
2022-08-19T11:15:22.131Z,629
2022-08-19T11:16:38.381Z,913
2022-08-19T11:17:54.624Z,905
2022-08-19T11:19:09.875Z,847
2022-08-19T11:20:26.103Z,687
2022-08-19T11:21:42.347Z,847
2022-08-19T11:22:58.620Z,984
2022-08-19T11:24:14.819Z,924
2022-08-19T11:25:31.063Z,970
2022-08-19T11:26:47.304Z,988
2022-08-19T11:28:03.544Z,912
2022-08-19T11:29:19.825Z,1003
2022-08-19T11:30:36.017Z,1026
2022-08-19T11:31:52.258Z,977
2022-08-19T11:33:08.497Z,825
2022-08-19T11:34:24.736Z,792
2022-08-19T11:35:39.984Z,833
2022-08-19T11:36:56.232Z,981
2022-08-19T11:38:12.505Z,1007
2022-08-19T11:39:28.714Z,757
2022-08-19T11:40:44.954Z,728
2022-08-19T11:42:01.186Z,771
2022-08-19T11:43:17.424Z,587
2022-08-19T11:44:33.705Z,584
2022-08-19T11:45:49.938Z,607
2022-08-19T11:47:06.000Z,576
2022-08-19T11:48:22.378Z,667
2022-08-19T11:49:38.627Z,738
2022-08-19T11:50:54.853Z,872
2022-08-19T11:52:10.106Z,1090
2022-08-19T11:53:26.392Z,1327
2022-08-19T11:54:42.649Z,1102
2022-08-19T11:55:58.834Z,814
2022-08-19T11:57:15.111Z,1176
2022-08-19T11:58:31.308Z,1545
2022-08-19T11:59:47.558Z,1529
2022-08-19T12:01:03.790Z,2426
2022-08-19T12:02:20.076Z,2305
2022-08-19T12:03:36.275Z,2406
2022-08-19T12:04:52.510Z,1776
2022-08-19T12:06:08.741Z,1564
2022-08-19T12:07:24.976Z,1908
2022-08-19T12:08:40.237Z,2795
2022-08-19T12:09:56.485Z,2858
2022-08-19T12:11:12.710Z,1310
2022-08-19T12:12:28.968Z,3828
2022-08-19T12:13:45.205Z,3614
2022-08-19T12:15:01.445Z,2430
2022-08-19T12:16:16.738Z,2679
2022-08-19T12:17:32.971Z,1987
2022-08-19T12:18:49.211Z,1748
2022-08-19T12:20:05.413Z,2416
2022-08-19T12:21:21.690Z,2297
2022-08-19T12:22:37.892Z,2496
2022-08-19T12:23:54.125Z,1750
2022-08-19T12:25:10.366Z,1324
2022-08-19T12:26:26.600Z,6498
2022-08-19T12:27:42.836Z,1458
2022-08-19T12:28:59.092Z,7768
2022-08-19T12:30:15.329Z,2402
2022-08-19T12:31:31.567Z,3171
2022-08-19T12:32:46.807Z,4000
2022-08-19T12:34:03.050Z,2650
2022-08-19T12:35:19.334Z,2252
2022-08-19T12:36:35.542Z,2285
2022-08-19T12:37:51.768Z,2178
2022-08-19T12:39:08.048Z,1976
2022-08-19T12:40:24.247Z,1538
2022-08-19T12:41:40.486Z,904
2022-08-19T12:42:56.764Z,2265
2022-08-19T12:44:12.977Z,2444
2022-08-19T12:45:29.255Z,3994
2022-08-19T12:46:45.449Z,2932
2022-08-19T12:48:01.690Z,2221
2022-08-19T12:49:16.942Z,2080
2022-08-19T12:50:33.174Z,1905
2022-08-19T12:51:49.411Z,1732
2022-08-19T12:53:05.659Z,1567
2022-08-19T12:54:21.897Z,1537
2022-08-19T12:55:38.120Z,1717
2022-08-19T12:56:54.357Z,1771
2022-08-19T12:58:10.596Z,1651
2022-08-19T12:59:26.840Z,1466
2022-08-19T13:00:43.126Z,1269
2022-08-19T13:01:59.329Z,1195
2022-08-19T13:03:15.555Z,1164
2022-08-19T13:04:31.784Z,1220
2022-08-19T13:05:47.082Z,1184
2022-08-19T13:07:03.277Z,1097
2022-08-19T13:08:19.522Z,1071
2022-08-19T13:09:35.754Z,1000
2022-08-19T13:10:51.993Z,841
2022-08-19T13:12:08.244Z,711
2022-08-19T13:13:24.510Z,631
2022-08-19T13:14:40.710Z,588
2022-08-19T13:15:56.990Z,561
2022-08-19T13:17:13.196Z,537
2022-08-19T13:18:29.425Z,526
2022-08-19T13:19:45.662Z,535
2022-08-19T13:21:01.000Z,527
2022-08-19T13:22:17.160Z,517
2022-08-19T13:23:33.402Z,476
2022-08-19T13:24:49.629Z,441
2022-08-19T13:26:05.866Z,410
2022-08-19T13:27:22.113Z,390
2022-08-19T13:28:38.389Z,373
2022-08-19T13:29:54.581Z,380
2022-08-19T13:31:10.821Z,401
2022-08-19T13:32:27.060Z,424
2022-08-19T13:33:43.305Z,420
2022-08-19T13:34:59.536Z,410
2022-08-19T13:36:15.811Z,402
2022-08-19T13:37:32.017Z,423
2022-08-19T13:38:47.306Z,460
2022-08-19T13:40:03.507Z,499
2022-08-19T13:41:19.752Z,509
2022-08-19T13:42:35.976Z,509
2022-08-19T13:43:52.232Z,488
2022-08-19T13:45:08.470Z,465
2022-08-19T13:46:24.704Z,398
2022-08-19T13:47:40.930Z,345
2022-08-19T13:48:57.174Z,319
2022-08-19T13:50:13.409Z,317
2022-08-19T13:51:29.661Z,339
2022-08-19T13:52:45.897Z,379
2022-08-19T13:54:02.124Z,419
2022-08-19T13:55:17.377Z,485
2022-08-19T13:56:33.629Z,573
2022-08-19T13:57:49.869Z,694
2022-08-19T13:59:06.095Z,739
2022-08-19T14:00:22.350Z,725
2022-08-19T14:01:38.578Z,782
2022-08-19T14:02:54.829Z,840
2022-08-19T14:04:11.096Z,867
2022-08-19T14:05:27.299Z,829
2022-08-19T14:06:43.540Z,826
2022-08-19T14:07:59.777Z,911
2022-08-19T14:09:16.002Z,1003
2022-08-19T14:10:32.286Z,880
2022-08-19T14:11:48.492Z,729
2022-08-19T14:13:03.789Z,651
2022-08-19T14:14:20.032Z,598
2022-08-19T14:15:36.213Z,581
2022-08-19T14:16:52.495Z,635
2022-08-19T14:18:08.703Z,756
2022-08-19T14:19:24.983Z,818
2022-08-19T14:20:41.172Z,873
2022-08-19T14:21:57.420Z,919
2022-08-19T14:23:13.654Z,840
2022-08-19T14:24:29.886Z,714
2022-08-19T14:25:46.138Z,638
2022-08-19T14:27:02.408Z,580
2022-08-19T14:28:18.647Z,514
2022-08-19T14:29:33.856Z,491
2022-08-19T14:30:50.110Z,492
2022-08-19T14:32:06.338Z,545
2022-08-19T14:33:22.585Z,611
2022-08-19T14:34:38.812Z,668
2022-08-19T14:35:55.050Z,701
2022-08-19T14:37:11.296Z,672
2022-08-19T14:38:27.545Z,627
2022-08-19T14:39:43.770Z,601
2022-08-19T14:41:00.017Z,591
2022-08-19T14:42:16.244Z,595
2022-08-19T14:43:32.489Z,621
2022-08-19T14:44:48.724Z,634
2022-08-19T14:46:03.994Z,641
2022-08-19T14:47:20.228Z,639
2022-08-19T14:48:36.470Z,634
2022-08-19T14:49:52.710Z,634
2022-08-19T14:51:08.933Z,600
2022-08-19T14:52:25.230Z,562
2022-08-19T14:53:41.421Z,534
2022-08-19T14:54:57.695Z,485
2022-08-19T14:56:13.936Z,454
2022-08-19T14:57:30.127Z,484
2022-08-19T14:58:46.366Z,507
2022-08-19T15:00:02.664Z,483
2022-08-19T15:01:18.857Z,442
2022-08-19T15:02:34.095Z,391
2022-08-19T15:03:50.335Z,341
2022-08-19T15:05:06.620Z,322
2022-08-19T15:06:22.813Z,333
2022-08-19T15:07:39.102Z,369
2022-08-19T15:08:55.291Z,384
2022-08-19T15:10:11.582Z,398
2022-08-19T15:11:27.780Z,408
2022-08-19T15:12:44.004Z,399
2022-08-19T15:14:00.291Z,367
2022-08-19T15:15:16.485Z,366
2022-08-19T15:16:32.726Z,362
2022-08-19T15:17:49.008Z,330
2022-08-19T15:19:04.230Z,343
2022-08-19T15:20:20.450Z,335
2022-08-19T15:21:36.697Z,350
2022-08-19T15:22:52.929Z,332
2022-08-19T15:24:09.170Z,316
2022-08-19T15:25:25.464Z,289
2022-08-19T15:26:41.652Z,265
2022-08-19T15:27:57.897Z,280
2022-08-19T15:29:14.174Z,312
2022-08-19T15:30:30.374Z,318
2022-08-19T15:31:46.597Z,293
2022-08-19T15:33:02.852Z,257
2022-08-19T15:34:19.077Z,245
2022-08-19T15:35:34.379Z,233
2022-08-19T15:36:50.582Z,236
2022-08-19T15:38:06.826Z,235
2022-08-19T15:39:23.063Z,231
2022-08-19T15:40:39.288Z,226
2022-08-19T15:41:55.528Z,214
2022-08-19T15:43:11.766Z,201
2022-08-19T15:44:28.005Z,203
2022-08-19T15:45:44.295Z,197
2022-08-19T15:47:00.495Z,209
2022-08-19T15:48:16.723Z,213
2022-08-19T15:49:32.976Z,219
2022-08-19T15:50:49.214Z,227
2022-08-19T15:52:04.454Z,234
2022-08-19T15:53:20.739Z,242
2022-08-19T15:54:36.941Z,252
2022-08-19T15:55:53.215Z,249
2022-08-19T15:57:09.460Z,249
2022-08-19T15:58:25.655Z,245
2022-08-19T15:59:41.889Z,223
2022-08-19T16:00:58.122Z,205
2022-08-19T16:02:14.373Z,184
2022-08-19T16:03:30.601Z,166
2022-08-19T16:04:46.890Z,156
2022-08-19T16:06:03.144Z,138
2022-08-19T16:07:19.328Z,133
2022-08-19T16:08:34.632Z,131
2022-08-19T16:09:50.828Z,127
2022-08-19T16:11:07.108Z,134
2022-08-19T16:12:23.297Z,134
2022-08-19T16:13:39.572Z,141
2022-08-19T16:14:55.779Z,142
2022-08-19T16:16:12.061Z,146
2022-08-19T16:17:28.250Z,140
2022-08-19T16:18:44.550Z,139
2022-08-19T16:20:00.722Z,142
2022-08-19T16:21:16.959Z,143
2022-08-19T16:22:33.244Z,153
2022-08-19T16:23:49.000Z,161
2022-08-19T16:25:04.742Z,185
2022-08-19T16:26:20.986Z,233
2022-08-19T16:27:37.179Z,262
2022-08-19T16:28:53.423Z,263
2022-08-19T16:30:09.647Z,297
2022-08-19T16:31:24.907Z,339
2022-08-19T16:32:41.144Z,335
2022-08-19T16:33:57.435Z,339
2022-08-19T16:35:13.674Z,392
2022-08-19T16:36:29.864Z,449
2022-08-19T16:37:46.162Z,459
2022-08-19T16:39:02.395Z,474
2022-08-19T16:40:18.628Z,473
2022-08-19T16:41:34.815Z,481
2022-08-19T16:42:51.065Z,503
2022-08-19T16:44:07.303Z,482
2022-08-19T16:45:23.532Z,457
2022-08-19T16:46:39.774Z,464
2022-08-19T16:47:55.029Z,448
2022-08-19T16:49:11.322Z,454
2022-08-19T16:50:27.557Z,437
2022-08-19T16:51:43.754Z,386
2022-08-19T16:53:00.033Z,341
2022-08-19T16:54:16.273Z,312
2022-08-19T16:55:32.471Z,286
2022-08-19T16:56:48.753Z,250
2022-08-19T16:58:04.989Z,222
2022-08-19T16:59:21.183Z,189
2022-08-19T17:00:37.468Z,166
2022-08-19T17:01:53.672Z,154
2022-08-19T17:03:09.895Z,142
2022-08-19T17:04:25.200Z,138
2022-08-19T17:05:41.391Z,140
2022-08-19T17:06:57.682Z,151
2022-08-19T17:08:13.873Z,165
2022-08-19T17:09:30.105Z,162
2022-08-19T17:10:46.357Z,146
2022-08-19T17:12:02.595Z,131
2022-08-19T17:13:18.825Z,121
2022-08-19T17:14:35.069Z,117
2022-08-19T17:15:51.308Z,126
2022-08-19T17:17:07.554Z,127
2022-08-19T17:18:23.786Z,133
2022-08-19T17:19:40.027Z,131
2022-08-19T17:20:55.288Z,122
2022-08-19T17:22:11.530Z,130
2022-08-19T17:23:27.762Z,128
2022-08-19T17:24:43.997Z,127
2022-08-19T17:26:00.240Z,128
2022-08-19T17:27:16.475Z,138
2022-08-19T17:28:32.728Z,147
2022-08-19T17:29:48.965Z,133
2022-08-19T17:31:05.203Z,125
2022-08-19T17:32:21.443Z,118
2022-08-19T17:33:37.678Z,115
2022-08-19T17:34:53.917Z,111
2022-08-19T17:36:10.154Z,110
2022-08-19T17:37:25.408Z,101
2022-08-19T17:38:41.642Z,95
2022-08-19T17:39:57.886Z,82
2022-08-19T17:41:14.142Z,72
2022-08-19T17:42:30.367Z,70
2022-08-19T17:43:46.609Z,64
2022-08-19T17:45:02.842Z,60
2022-08-19T17:46:19.087Z,58
2022-08-19T17:47:35.325Z,53
2022-08-19T17:48:51.565Z,49
2022-08-19T17:50:07.799Z,56
2022-08-19T17:51:24.047Z,58